createdAt,value
2019-05-01T00:00:37.894Z,9.60
2019-05-01T00:03:37.075Z,9.60
2019-05-01T00:06:05.594Z,9.60
2019-05-01T00:08:33.257Z,9.50
2019-05-01T00:11:00.892Z,9.50
2019-05-01T00:13:28.629Z,9.50
2019-05-01T00:15:56.649Z,9.50
2019-05-01T00:18:24.433Z,9.50
2019-05-01T00:20:52.071Z,9.50
2019-05-01T00:23:19.723Z,9.50
2019-05-01T00:25:47.378Z,9.50
2019-05-01T00:28:15.349Z,9.50
2019-05-01T00:30:42.960Z,9.50
2019-05-01T00:33:10.606Z,9.50
2019-05-01T00:35:38.281Z,9.40
2019-05-01T00:38:05.928Z,9.40
2019-05-01T00:40:33.614Z,9.40
2019-05-01T00:43:01.269Z,9.40
2019-05-01T00:45:28.921Z,9.40
2019-05-01T00:47:56.546Z,9.30
2019-05-01T00:50:24.194Z,9.30
2019-05-01T00:52:51.801Z,9.30
2019-05-01T00:55:38.175Z,9.20
2019-05-01T00:58:25.380Z,9.20
2019-05-01T01:01:06.579Z,9.20
2019-05-01T01:03:34.209Z,9.20
2019-05-01T01:06:02.118Z,9.20
2019-05-01T01:08:29.716Z,9.20
2019-05-01T01:10:57.492Z,9.10
2019-05-01T01:13:25.136Z,9.10
2019-05-01T01:15:52.759Z,9.10
2019-05-01T01:18:20.423Z,9.10
2019-05-01T01:20:48.131Z,9.20
2019-05-01T01:23:16.082Z,9.10
2019-05-01T01:25:43.741Z,9.10
2019-05-01T01:28:11.702Z,9.10
2019-05-01T01:30:39.348Z,9.10
2019-05-01T01:33:07.002Z,9.00
2019-05-01T01:35:34.674Z,9.00
2019-05-01T01:38:02.557Z,9.00
2019-05-01T01:40:30.448Z,9.00
2019-05-01T01:43:18.255Z,8.90
2019-05-01T01:45:47.636Z,8.90
2019-05-01T01:48:16.415Z,8.90
2019-05-01T01:50:45.708Z,8.80
2019-05-01T01:53:16.835Z,8.80
2019-05-01T01:55:45.747Z,8.80
2019-05-01T01:58:13.807Z,8.80
2019-05-01T02:01:16.764Z,8.80
2019-05-01T02:03:48.711Z,8.80
2019-05-01T02:06:16.483Z,8.70
2019-05-01T02:08:56.034Z,8.70
2019-05-01T02:11:13.965Z,8.60
2019-05-01T02:13:42.087Z,8.60
2019-05-01T02:16:09.757Z,8.60
2019-05-01T02:18:37.433Z,8.60
2019-05-01T02:21:05.202Z,8.50
2019-05-01T02:23:32.837Z,8.50
2019-05-01T02:26:01.274Z,8.50
2019-05-01T02:28:39.495Z,8.50
2019-05-01T02:31:26.955Z,8.50
2019-05-01T02:33:47.187Z,8.40
2019-05-01T02:36:15.844Z,8.40
2019-05-01T02:38:45.241Z,8.50
2019-05-01T02:41:15.092Z,8.50
2019-05-01T02:43:45.877Z,8.40
2019-05-01T02:46:16.074Z,8.40
2019-05-01T02:48:48.080Z,8.40
2019-05-01T02:51:16.766Z,8.40
2019-05-01T02:53:45.911Z,8.40
2019-05-01T02:56:27.512Z,8.40
2019-05-01T02:58:56.597Z,8.40
2019-05-01T03:01:24.531Z,8.40
2019-05-01T03:03:52.800Z,8.30
2019-05-01T03:06:21.059Z,8.30
2019-05-01T03:08:49.988Z,8.40
2019-05-01T03:11:17.808Z,8.40
2019-05-01T03:13:46.654Z,8.40
2019-05-01T03:16:16.289Z,8.30
2019-05-01T03:18:48.893Z,8.30
2019-05-01T03:21:24.379Z,8.30
2019-05-01T03:23:59.455Z,8.30
2019-05-01T03:26:27.339Z,8.20
2019-05-01T03:28:55.056Z,8.20
2019-05-01T03:31:22.878Z,8.20
2019-05-01T03:33:50.513Z,8.20
2019-05-01T03:36:18.286Z,8.30
2019-05-01T03:38:46.481Z,8.30
2019-05-01T03:41:14.575Z,8.30
2019-05-01T03:43:42.422Z,8.30
2019-05-01T03:46:10.199Z,8.30
2019-05-01T03:48:37.870Z,8.30
2019-05-01T03:51:05.652Z,8.30
2019-05-01T03:53:33.937Z,8.30
2019-05-01T03:56:01.626Z,8.30
2019-05-01T03:58:30.096Z,8.30
2019-05-01T04:01:29.235Z,8.30
2019-05-01T04:04:09.214Z,8.20
2019-05-01T04:06:36.995Z,8.20
2019-05-01T04:09:06.354Z,8.20
2019-05-01T04:11:34.299Z,8.20
2019-05-01T04:14:03.298Z,8.30
2019-05-01T04:16:31.084Z,8.30
2019-05-01T04:18:58.862Z,8.20
2019-05-01T04:21:31.325Z,8.20
2019-05-01T04:23:59.889Z,8.30
2019-05-01T04:26:27.579Z,8.30
2019-05-01T04:29:04.767Z,8.30
2019-05-01T04:32:00.810Z,8.30
2019-05-01T04:34:57.029Z,8.20
2019-05-01T04:37:25.946Z,8.20
2019-05-01T04:39:54.138Z,8.10
2019-05-01T04:42:22.681Z,8.10
2019-05-01T04:44:50.434Z,8.10
2019-05-01T04:47:18.633Z,8.10
2019-05-01T04:49:46.486Z,8.10
2019-05-01T04:52:14.512Z,8.10
2019-05-01T04:54:42.256Z,8.10
2019-05-01T04:57:10.326Z,8.10
2019-05-01T04:59:38.419Z,8.10
2019-05-01T05:02:09.224Z,8.10
2019-05-01T05:04:37.552Z,8.10
2019-05-01T05:07:05.261Z,8.10
2019-05-01T05:09:43.357Z,8.20
2019-05-01T05:12:17.581Z,8.20
2019-05-01T05:14:49.601Z,8.20
2019-05-01T05:17:20.216Z,8.20
2019-05-01T05:19:47.970Z,8.30
2019-05-01T05:22:16.648Z,8.30
2019-05-01T05:24:44.656Z,8.30
2019-05-01T05:27:12.943Z,8.40
2019-05-01T05:29:42.653Z,8.40
2019-05-01T05:32:12.799Z,8.40
2019-05-01T05:34:42.309Z,8.40
2019-05-01T05:37:18.230Z,8.40
2019-05-01T05:39:47.067Z,8.40
2019-05-01T05:42:15.033Z,8.50
2019-05-01T05:44:43.596Z,8.50
2019-05-01T05:47:11.466Z,8.50
2019-05-01T05:49:39.572Z,8.50
2019-05-01T05:52:28.422Z,8.50
2019-05-01T05:55:25.239Z,8.60
2019-05-01T05:58:24.680Z,8.50
2019-05-01T06:01:10.847Z,8.60
2019-05-01T06:04:06.912Z,8.60
2019-05-01T06:07:02.000Z,8.70
2019-05-01T06:09:58.516Z,8.80
2019-05-01T06:12:33.978Z,9.00
2019-05-01T06:15:22.445Z,8.90
2019-05-01T06:17:59.203Z,8.90
2019-05-01T06:20:47.734Z,8.90
2019-05-01T06:23:43.399Z,9.00
2019-05-01T06:26:31.951Z,9.00
2019-05-01T06:29:02.379Z,9.10
2019-05-01T06:31:30.689Z,9.20
2019-05-01T06:33:58.706Z,9.30
2019-05-01T06:36:26.360Z,9.40
2019-05-01T06:38:54.960Z,9.40
2019-05-01T06:41:24.209Z,9.50
2019-05-01T06:44:02.687Z,9.50
2019-05-01T06:46:50.929Z,9.60
2019-05-01T06:49:37.362Z,9.60
2019-05-01T06:52:17.455Z,9.60
2019-05-01T06:54:47.787Z,9.70
2019-05-01T06:57:14.598Z,9.70
2019-05-01T06:59:42.998Z,9.90
2019-05-01T07:02:15.759Z,10.00
2019-05-01T07:04:44.709Z,10.10
2019-05-01T07:07:25.240Z,10.20
2019-05-01T07:09:44.142Z,10.30
2019-05-01T07:12:24.002Z,10.40
2019-05-01T07:14:52.151Z,10.50
2019-05-01T07:17:20.574Z,10.60
2019-05-01T07:20:06.696Z,10.70
2019-05-01T07:22:37.192Z,10.80
2019-05-01T07:25:06.577Z,10.90
2019-05-01T07:27:34.535Z,11.00
2019-05-01T07:30:15.838Z,11.30
2019-05-01T07:32:42.784Z,11.50
2019-05-01T07:35:10.625Z,11.70
2019-05-01T07:37:38.466Z,11.80
2019-05-01T07:40:06.780Z,12.00
2019-05-01T07:42:36.487Z,12.00
2019-05-01T07:45:26.758Z,12.40
2019-05-01T07:47:54.639Z,12.50
2019-05-01T07:50:24.232Z,12.40
2019-05-01T07:52:53.945Z,12.40
2019-05-01T07:55:35.366Z,12.90
2019-05-01T07:58:05.070Z,13.40
2019-05-01T08:00:45.048Z,13.80
2019-05-01T08:03:12.839Z,14.00
2019-05-01T08:05:40.841Z,14.00
2019-05-01T08:08:09.926Z,14.00
2019-05-01T08:10:37.624Z,13.90
2019-05-01T08:13:05.313Z,14.20
2019-05-01T08:15:32.955Z,14.50
2019-05-01T08:18:24.069Z,14.80
2019-05-01T08:20:55.212Z,14.90
2019-05-01T08:23:23.026Z,15.10
2019-05-01T08:25:50.695Z,15.00
2019-05-01T08:28:27.594Z,15.10
2019-05-01T08:31:15.318Z,15.40
2019-05-01T08:34:04.316Z,15.80
2019-05-01T08:36:31.964Z,15.80
2019-05-01T08:38:59.698Z,15.70
2019-05-01T08:41:31.713Z,15.80
2019-05-01T08:43:56.829Z,15.80
2019-05-01T08:47:02.560Z,15.90
2019-05-01T08:49:42.226Z,16.10
2019-05-01T08:52:12.632Z,16.30
2019-05-01T08:54:37.463Z,16.50
2019-05-01T08:57:07.831Z,16.50
2019-05-01T08:59:34.605Z,16.70
2019-05-01T09:02:09.266Z,16.80
2019-05-01T09:04:32.445Z,16.90
2019-05-01T09:07:00.201Z,17.10
2019-05-01T09:09:27.836Z,17.50
2019-05-01T09:11:55.551Z,17.50
2019-05-01T09:14:23.391Z,17.70
2019-05-01T09:16:52.556Z,17.80
2019-05-01T09:19:20.388Z,17.80
2019-05-01T09:21:48.084Z,17.70
2019-05-01T09:24:15.742Z,17.80
2019-05-01T09:27:01.776Z,18.00
2019-05-01T09:29:36.828Z,18.10
2019-05-01T09:32:05.084Z,18.00
2019-05-01T09:34:34.316Z,18.10
2019-05-01T09:37:01.978Z,18.20
2019-05-01T09:39:30.359Z,18.30
2019-05-01T09:41:58.103Z,18.60
2019-05-01T09:44:25.798Z,18.80
2019-05-01T09:46:53.462Z,19.00
2019-05-01T09:49:21.737Z,19.20
2019-05-01T09:52:24.902Z,19.20
2019-05-01T09:55:00.048Z,19.40
2019-05-01T09:57:27.729Z,19.00
2019-05-01T09:59:55.376Z,19.20
2019-05-01T10:02:23.051Z,19.10
2019-05-01T10:04:50.734Z,19.00
2019-05-01T10:07:18.380Z,18.90
2019-05-01T10:09:47.227Z,18.80
2019-05-01T10:12:15.559Z,18.80
2019-05-01T10:14:43.231Z,18.80
2019-05-01T10:17:13.416Z,18.90
2019-05-01T10:19:40.389Z,19.00
2019-05-01T10:22:08.070Z,19.00
2019-05-01T10:24:37.640Z,19.00
2019-05-01T10:27:06.999Z,19.10
2019-05-01T10:29:56.926Z,19.10
2019-05-01T10:32:44.898Z,19.20
2019-05-01T10:35:43.039Z,19.00
2019-05-01T10:38:09.422Z,18.90
2019-05-01T10:40:37.067Z,19.00
2019-05-01T10:43:04.744Z,19.30
2019-05-01T10:45:32.388Z,19.50
2019-05-01T10:48:00.122Z,19.50
2019-05-01T10:50:27.774Z,19.50
2019-05-01T10:52:55.571Z,19.70
2019-05-01T10:55:23.610Z,19.70
2019-05-01T10:57:51.261Z,19.60
2019-05-01T11:00:19.027Z,19.50
2019-05-01T11:02:46.691Z,19.40
2019-05-01T11:05:14.502Z,19.30
2019-05-01T11:07:42.291Z,19.30
2019-05-01T11:10:10.457Z,19.30
2019-05-01T11:12:38.107Z,19.40
2019-05-01T11:15:07.202Z,19.60
2019-05-01T11:17:34.845Z,19.60
2019-05-01T11:20:02.540Z,19.50
2019-05-01T11:22:30.204Z,19.60
2019-05-01T11:24:57.891Z,19.70
2019-05-01T11:27:25.527Z,20.00
2019-05-01T11:29:53.228Z,20.20
2019-05-01T11:32:30.429Z,20.20
2019-05-01T11:35:23.598Z,20.10
2019-05-01T11:38:08.676Z,20.00
2019-05-01T11:40:48.895Z,20.10
2019-05-01T11:43:16.523Z,20.00
2019-05-01T11:45:44.197Z,19.80
2019-05-01T11:48:11.848Z,19.80
2019-05-01T11:50:39.570Z,19.90
2019-05-01T11:53:07.212Z,19.90
2019-05-01T11:55:34.845Z,20.00
2019-05-01T11:58:04.011Z,20.10
2019-05-01T12:00:31.676Z,20.20
2019-05-01T12:02:59.355Z,20.10
2019-05-01T12:05:27.047Z,20.20
2019-05-01T12:07:54.753Z,20.30
2019-05-01T12:10:22.382Z,20.20
2019-05-01T12:12:50.039Z,20.30
2019-05-01T12:15:18.182Z,20.30
2019-05-01T12:17:49.659Z,20.00
2019-05-01T12:20:18.879Z,20.00
2019-05-01T12:22:49.590Z,20.10
2019-05-01T12:25:17.002Z,20.20
2019-05-01T12:27:44.667Z,20.20
2019-05-01T12:30:14.283Z,20.20
2019-05-01T12:32:41.965Z,20.30
2019-05-01T12:35:09.624Z,20.40
2019-05-01T12:37:41.399Z,20.50
2019-05-01T12:40:12.448Z,20.50
2019-05-01T12:42:40.125Z,20.50
2019-05-01T12:45:10.132Z,20.40
2019-05-01T12:47:44.867Z,20.40
2019-05-01T12:50:13.186Z,20.70
2019-05-01T12:52:59.154Z,20.90
2019-05-01T12:56:04.499Z,21.20
2019-05-01T12:58:32.737Z,21.30
2019-05-01T13:01:00.415Z,21.50
2019-05-01T13:03:28.074Z,21.70
2019-05-01T13:05:55.811Z,21.70
2019-05-01T13:08:29.334Z,21.80
2019-05-01T13:10:58.336Z,21.80
2019-05-01T13:13:26.032Z,21.90
2019-05-01T13:15:56.365Z,21.80
2019-05-01T13:18:24.061Z,21.90
2019-05-01T13:20:51.725Z,21.90
2019-05-01T13:23:19.448Z,21.80
2019-05-01T13:25:47.844Z,21.90
2019-05-01T13:28:42.407Z,21.90
2019-05-01T13:31:21.557Z,21.80
2019-05-01T13:33:49.192Z,21.90
2019-05-01T13:36:16.875Z,21.90
2019-05-01T13:38:44.549Z,22.00
2019-05-01T13:41:39.849Z,21.90
2019-05-01T13:44:07.612Z,21.80
2019-05-01T13:46:37.893Z,21.70
2019-05-01T13:49:05.685Z,21.60
2019-05-01T13:51:33.322Z,21.60
2019-05-01T13:54:01.025Z,21.40
2019-05-01T13:56:28.660Z,21.10
2019-05-01T13:59:05.744Z,21.10
2019-05-01T14:01:33.495Z,20.90
2019-05-01T14:04:01.301Z,20.90
2019-05-01T14:06:28.964Z,20.70
2019-05-01T14:08:56.634Z,20.70
2019-05-01T14:11:33.176Z,20.60
2019-05-01T14:14:00.821Z,20.70
2019-05-01T14:16:28.524Z,20.70
2019-05-01T14:18:56.206Z,20.70
2019-05-01T14:21:38.167Z,20.50
2019-05-01T14:24:23.638Z,20.40
2019-05-01T14:26:57.020Z,20.20
2019-05-01T14:29:24.664Z,19.90
2019-05-01T14:31:52.396Z,19.80
2019-05-01T14:34:20.032Z,19.70
2019-05-01T14:36:49.777Z,19.60
2019-05-01T14:39:17.416Z,19.50
2019-05-01T14:41:45.125Z,19.50
2019-05-01T14:44:12.789Z,19.40
2019-05-01T14:46:40.508Z,19.20
2019-05-01T14:49:08.156Z,19.20
2019-05-01T14:51:36.060Z,19.20
2019-05-01T14:54:03.883Z,19.10
2019-05-01T14:56:31.536Z,19.00
2019-05-01T14:58:59.247Z,18.90
2019-05-01T15:01:26.955Z,19.00
2019-05-01T15:04:09.336Z,18.90
2019-05-01T15:06:37.129Z,18.90
2019-05-01T15:09:07.056Z,18.90
2019-05-01T15:11:34.867Z,18.90
2019-05-01T15:14:21.504Z,19.00
2019-05-01T15:17:08.641Z,19.00
2019-05-01T15:19:41.407Z,19.00
2019-05-01T15:22:09.118Z,19.00
2019-05-01T15:24:36.748Z,19.00
2019-05-01T15:27:04.410Z,19.00
2019-05-01T15:29:32.103Z,18.80
2019-05-01T15:31:59.745Z,18.90
2019-05-01T15:34:27.414Z,18.90
2019-05-01T15:36:55.085Z,18.90
2019-05-01T15:39:28.532Z,18.90
2019-05-01T15:42:14.387Z,18.80
2019-05-01T15:44:42.384Z,18.70
2019-05-01T15:47:10.054Z,18.70
2019-05-01T15:49:37.730Z,18.70
2019-05-01T15:52:05.405Z,18.60
2019-05-01T15:54:33.089Z,18.60
2019-05-01T15:57:00.763Z,18.50
2019-05-01T15:59:28.520Z,18.30
2019-05-01T16:01:56.245Z,18.30
2019-05-01T16:04:23.924Z,18.30
2019-05-01T16:06:51.638Z,18.30
2019-05-01T16:09:19.260Z,18.20
2019-05-01T16:12:12.184Z,18.10
2019-05-01T16:14:41.803Z,18.00
2019-05-01T16:17:09.485Z,17.90
2019-05-01T16:19:37.172Z,17.80
2019-05-01T16:22:04.864Z,17.70
2019-05-01T16:24:32.490Z,17.70
2019-05-01T16:27:00.305Z,17.70
2019-05-01T16:29:27.935Z,17.60
2019-05-01T16:31:55.611Z,17.60
2019-05-01T16:34:23.374Z,17.60
2019-05-01T16:36:51.066Z,17.50
2019-05-01T16:39:41.329Z,17.40
2019-05-01T16:42:09.071Z,17.30
2019-05-01T16:44:36.869Z,17.30
2019-05-01T16:47:04.525Z,17.20
2019-05-01T16:49:32.227Z,17.10
2019-05-01T16:51:59.942Z,17.10
2019-05-01T16:54:27.605Z,17.00
2019-05-01T16:56:57.384Z,16.90
2019-05-01T16:59:24.765Z,16.90
2019-05-01T17:02:14.633Z,16.70
2019-05-01T17:04:48.415Z,16.60
2019-05-01T17:07:47.408Z,16.50
2019-05-01T17:10:23.127Z,16.40
2019-05-01T17:12:55.379Z,16.40
2019-05-01T17:15:30.251Z,16.40
2019-05-01T17:17:57.925Z,16.30
2019-05-01T17:20:25.985Z,16.20
2019-05-01T17:22:53.686Z,16.20
2019-05-01T17:25:21.364Z,16.10
2019-05-01T17:27:49.055Z,16.00
2019-05-01T17:30:22.627Z,16.00
2019-05-01T17:32:50.285Z,15.90
2019-05-01T17:35:17.980Z,15.80
2019-05-01T17:37:45.606Z,15.70
2019-05-01T17:40:13.423Z,15.60
2019-05-01T17:42:41.061Z,15.60
2019-05-01T17:45:08.746Z,15.50
2019-05-01T17:47:36.391Z,15.40
2019-05-01T17:50:05.251Z,15.20
2019-05-01T17:52:32.900Z,15.20
2019-05-01T17:55:01.421Z,15.10
2019-05-01T17:57:29.347Z,15.00
2019-05-01T17:59:59.140Z,14.90
2019-05-01T18:02:34.024Z,14.90
2019-05-01T18:05:13.241Z,14.70
2019-05-01T18:07:40.898Z,14.70
2019-05-01T18:10:08.920Z,14.60
2019-05-01T18:12:36.601Z,14.50
2019-05-01T18:15:04.805Z,14.40
2019-05-01T18:17:32.622Z,14.20
2019-05-01T18:20:00.271Z,14.10
2019-05-01T18:22:56.403Z,13.90
2019-05-01T18:25:40.838Z,13.80
2019-05-01T18:28:31.734Z,13.70
2019-05-01T18:30:59.511Z,13.60
2019-05-01T18:33:27.235Z,13.50
2019-05-01T18:35:55.233Z,13.40
2019-05-01T18:38:28.991Z,13.30
2019-05-01T18:41:05.750Z,13.20
2019-05-01T18:43:33.947Z,13.10
2019-05-01T18:46:03.483Z,13.00
2019-05-01T18:48:31.114Z,12.90
2019-05-01T18:50:58.800Z,12.80
2019-05-01T18:53:26.543Z,12.80
2019-05-01T18:55:54.296Z,12.60
2019-05-01T18:58:22.030Z,12.50
2019-05-01T19:00:49.768Z,12.50
2019-05-01T19:03:17.451Z,12.40
2019-05-01T19:05:46.986Z,12.30
2019-05-01T19:08:14.703Z,12.30
2019-05-01T19:10:42.385Z,12.20
2019-05-01T19:13:10.875Z,12.10
2019-05-01T19:15:38.717Z,12.00
2019-05-01T19:18:06.456Z,11.90
2019-05-01T19:20:34.207Z,11.90
2019-05-01T19:23:01.860Z,11.80
2019-05-01T19:25:29.577Z,11.80
2019-05-01T19:27:57.224Z,11.70
2019-05-01T19:30:25.006Z,11.60
2019-05-01T19:32:52.685Z,11.50
2019-05-01T19:35:23.698Z,11.40
2019-05-01T19:37:52.865Z,11.30
2019-05-01T19:40:19.437Z,11.30
2019-05-01T19:42:47.177Z,11.20
2019-05-01T19:45:14.903Z,11.20
2019-05-01T19:47:42.569Z,11.00
2019-05-01T19:50:11.222Z,11.00
2019-05-01T19:52:39.930Z,10.90
2019-05-01T19:55:07.819Z,10.80
2019-05-01T19:57:35.644Z,10.70
2019-05-01T20:00:04.658Z,10.70
2019-05-01T20:02:32.413Z,10.60
2019-05-01T20:05:00.112Z,10.50
2019-05-01T20:07:27.913Z,10.40
2019-05-01T20:09:56.958Z,10.40
2019-05-01T20:12:25.242Z,10.30
2019-05-01T20:14:52.941Z,10.30
2019-05-01T20:17:20.606Z,10.20
2019-05-01T20:19:48.269Z,10.10
2019-05-01T20:22:15.980Z,10.00
2019-05-01T20:24:44.355Z,10.00
2019-05-01T20:27:13.264Z,10.00
2019-05-01T20:29:40.894Z,9.90
2019-05-01T20:32:08.547Z,9.80
2019-05-01T20:34:36.246Z,9.80
2019-05-01T20:37:04.752Z,9.70
2019-05-01T20:39:32.428Z,9.60
2019-05-01T20:42:00.087Z,9.60
2019-05-01T20:44:27.788Z,9.50
2019-05-01T20:46:58.548Z,9.50
2019-05-01T20:49:25.853Z,9.50
2019-05-01T20:51:53.516Z,9.40
2019-05-01T20:54:21.223Z,9.30
2019-05-01T20:56:54.743Z,9.30
2019-05-01T20:59:22.455Z,9.30
2019-05-01T21:01:50.167Z,9.20
2019-05-01T21:04:49.666Z,9.10
2019-05-01T21:07:36.519Z,9.10
2019-05-01T21:10:05.032Z,9.00
2019-05-01T21:12:32.695Z,8.90
2019-05-01T21:15:00.376Z,8.80
2019-05-01T21:17:28.046Z,8.80
2019-05-01T21:19:55.763Z,8.70
2019-05-01T21:22:23.513Z,8.60
2019-05-01T21:24:53.145Z,8.60
2019-05-01T21:27:20.750Z,8.50
2019-05-01T21:29:48.423Z,8.50
2019-05-01T21:32:18.212Z,8.40
2019-05-01T21:34:45.694Z,8.40
2019-05-01T21:37:13.352Z,8.30
2019-05-01T21:39:41.042Z,8.20
2019-05-01T21:42:11.440Z,8.20
2019-05-01T21:44:38.245Z,8.20
2019-05-01T21:47:06.259Z,8.10
2019-05-01T21:49:33.883Z,8.10
2019-05-01T21:52:03.763Z,8.00
2019-05-01T21:54:31.119Z,8.00
2019-05-01T21:56:58.762Z,8.00
2019-05-01T21:59:26.464Z,8.00
2019-05-01T22:01:54.150Z,7.90
2019-05-01T22:04:21.822Z,7.90
2019-05-01T22:06:51.931Z,7.80
2019-05-01T22:09:21.279Z,7.80
2019-05-01T22:11:49.441Z,7.70
2019-05-01T22:14:42.552Z,7.60
2019-05-01T22:17:27.317Z,7.60
2019-05-01T22:19:55.410Z,7.50
2019-05-01T22:22:48.761Z,7.50
2019-05-01T22:25:20.763Z,7.40
2019-05-01T22:27:52.389Z,7.40
2019-05-01T22:30:34.080Z,7.30
2019-05-01T22:33:01.931Z,7.30
2019-05-01T22:35:32.377Z,7.30
2019-05-01T22:38:00.081Z,7.30
2019-05-01T22:40:47.220Z,7.30
2019-05-01T22:43:14.980Z,7.20
2019-05-01T22:45:42.779Z,7.20
2019-05-01T22:48:10.452Z,7.20
2019-05-01T22:50:38.111Z,7.20
2019-05-01T22:53:07.967Z,7.10
2019-05-01T22:55:35.274Z,7.10
2019-05-01T22:58:02.962Z,7.10
2019-05-01T23:00:38.250Z,7.10
2019-05-01T23:03:08.273Z,7.00
2019-05-01T23:05:35.940Z,7.00
2019-05-01T23:08:04.242Z,7.00
2019-05-01T23:10:32.490Z,6.90
2019-05-01T23:13:00.182Z,6.90
2019-05-01T23:15:29.323Z,6.90
2019-05-01T23:17:57.029Z,6.90
2019-05-01T23:20:24.814Z,6.90
2019-05-01T23:22:52.469Z,6.80
2019-05-01T23:25:20.174Z,6.80
2019-05-01T23:27:47.822Z,6.80
2019-05-01T23:30:17.784Z,6.80
2019-05-01T23:32:45.473Z,6.80
2019-05-01T23:35:13.242Z,6.70
2019-05-01T23:37:40.921Z,6.70
2019-05-01T23:40:10.940Z,6.70
2019-05-01T23:42:38.629Z,6.60
2019-05-01T23:45:06.622Z,6.60
2019-05-01T23:47:34.284Z,6.70
2019-05-01T23:50:02.277Z,6.60
2019-05-01T23:52:33.952Z,6.60
2019-05-01T23:54:59.433Z,6.60
2019-05-01T23:57:27.166Z,6.60
2019-05-01T23:59:54.848Z,6.50
